createdAt,value
2023-03-13T00:03:25.118Z,1.45
2023-03-13T00:07:27.916Z,1.38
2023-03-13T00:11:30.915Z,1.50
2023-03-13T00:15:34.116Z,1.65
2023-03-13T00:19:38.607Z,1.30
2023-03-13T00:23:41.993Z,1.48
2023-03-13T00:27:44.825Z,1.90
2023-03-13T00:31:47.718Z,0.90
2023-03-13T00:35:53.825Z,1.33
2023-03-13T00:39:56.655Z,1.38
2023-03-13T00:43:59.757Z,1.63
2023-03-13T00:48:02.618Z,1.13
2023-03-13T00:52:07.465Z,1.55
2023-03-13T00:56:13.260Z,1.30
2023-03-13T01:00:17.212Z,1.33
2023-03-13T01:04:20.138Z,1.08
2023-03-13T01:08:24.374Z,1.60
2023-03-13T01:12:27.189Z,2.85
2023-03-13T01:16:32.369Z,1.15
2023-03-13T01:20:35.178Z,1.50
2023-03-13T01:24:39.549Z,1.58
2023-03-13T01:28:42.902Z,1.23
2023-03-13T01:32:45.952Z,1.13
2023-03-13T01:36:51.108Z,1.35
2023-03-13T01:40:55.280Z,1.35
2023-03-13T01:44:58.918Z,1.27
2023-03-13T01:49:06.402Z,1.15
2023-03-13T01:53:14.703Z,1.48
2023-03-13T01:57:23.224Z,1.52
2023-03-13T02:01:27.769Z,1.50
2023-03-13T02:05:32.526Z,1.10
2023-03-13T02:09:36.867Z,1.20
2023-03-13T02:13:41.083Z,1.20
2023-03-13T02:17:45.650Z,0.88
2023-03-13T02:21:54.094Z,1.95
2023-03-13T02:25:58.441Z,1.67
2023-03-13T02:30:11.779Z,1.50
2023-03-13T02:34:16.845Z,1.50
2023-03-13T02:38:25.060Z,1.83
2023-03-13T02:42:31.443Z,1.65
2023-03-13T02:46:46.066Z,1.10
2023-03-13T02:50:50.353Z,1.10
2023-03-13T02:54:59.707Z,1.20
2023-03-13T02:59:04.746Z,1.13
2023-03-13T03:03:08.471Z,1.13
2023-03-13T03:07:13.073Z,1.10
2023-03-13T03:11:16.373Z,1.23
2023-03-13T03:15:23.667Z,0.88
2023-03-13T03:19:28.225Z,0.90
2023-03-13T03:23:31.356Z,0.80
2023-03-13T03:27:34.239Z,0.90
2023-03-13T03:31:38.629Z,0.98
2023-03-13T03:35:41.539Z,1.00
2023-03-13T03:39:45.522Z,0.88
2023-03-13T03:43:49.275Z,1.02
2023-03-13T03:47:59.751Z,0.90
2023-03-13T03:52:03.332Z,0.82
2023-03-13T03:56:11.492Z,1.05
2023-03-13T04:00:21.095Z,1.00
2023-03-13T04:04:30.047Z,1.10
2023-03-13T04:08:40.543Z,1.10
2023-03-13T04:12:46.175Z,1.08
2023-03-13T04:16:49.656Z,1.00
2023-03-13T04:21:01.509Z,0.80
2023-03-13T04:25:05.613Z,0.60
2023-03-13T04:29:09.179Z,1.30
2023-03-13T04:33:24.662Z,0.65
2023-03-13T04:37:49.401Z,1.05
2023-03-13T04:42:07.348Z,0.82
2023-03-13T04:46:32.580Z,0.80
2023-03-13T04:50:54.191Z,0.93
2023-03-13T04:55:05.006Z,0.60
2023-03-13T04:59:30.877Z,0.70
2023-03-13T05:03:33.657Z,0.80
2023-03-13T05:08:00.150Z,0.75
2023-03-13T05:12:04.615Z,1.02
2023-03-13T05:16:33.362Z,1.00
2023-03-13T05:21:03.419Z,0.82
2023-03-13T05:25:30.496Z,1.52
2023-03-13T05:29:45.704Z,2.50
2023-03-13T05:33:54.166Z,0.80
2023-03-13T05:38:35.445Z,0.65
2023-03-13T05:42:47.157Z,1.05
2023-03-13T05:47:17.312Z,0.85
2023-03-13T05:51:36.314Z,0.70
2023-03-13T05:56:02.354Z,1.23
2023-03-13T06:00:25.869Z,0.90
2023-03-13T06:04:43.584Z,1.30
2023-03-13T06:08:46.638Z,1.20
2023-03-13T06:12:54.090Z,0.63
2023-03-13T06:16:58.436Z,0.90
2023-03-13T06:21:05.442Z,2.85
2023-03-13T06:25:09.054Z,1.27
2023-03-13T06:29:12.053Z,1.10
2023-03-13T06:33:15.271Z,1.00
2023-03-13T06:37:19.468Z,1.27
2023-03-13T06:41:22.286Z,1.52
2023-03-13T06:45:25.144Z,1.50
2023-03-13T06:49:27.956Z,1.23
2023-03-13T06:53:32.125Z,1.65
2023-03-13T06:57:35.059Z,1.10
2023-03-13T07:01:37.888Z,1.00
2023-03-13T07:05:40.816Z,1.17
2023-03-13T07:09:45.061Z,1.20
2023-03-13T07:13:47.926Z,1.65
2023-03-13T07:17:50.724Z,0.75
2023-03-13T07:21:53.573Z,0.50
2023-03-13T07:25:59.843Z,0.80
2023-03-13T07:30:02.671Z,0.70
2023-03-13T07:34:05.521Z,0.60
2023-03-13T07:38:08.346Z,0.50
2023-03-13T07:42:13.115Z,0.70
2023-03-13T07:46:19.997Z,0.50
2023-03-13T07:50:23.030Z,0.50
2023-03-13T07:54:26.038Z,0.70
2023-03-13T07:58:31.809Z,0.85
2023-03-13T08:02:35.061Z,1.02
2023-03-13T08:06:38.986Z,0.70
2023-03-13T08:10:41.835Z,0.45
2023-03-13T08:14:45.998Z,0.50
2023-03-13T08:18:50.973Z,0.63
2023-03-13T08:22:55.930Z,1.23
2023-03-13T08:26:58.705Z,0.98
2023-03-13T08:31:10.310Z,0.60
2023-03-13T08:35:13.153Z,1.10
2023-03-13T08:39:17.251Z,0.50
2023-03-13T08:43:20.070Z,0.57
2023-03-13T08:47:24.306Z,0.60
2023-03-13T08:51:29.151Z,0.63
2023-03-13T08:55:31.971Z,0.52
2023-03-13T08:59:34.804Z,0.63
2023-03-13T09:03:39.982Z,0.98
2023-03-13T09:07:42.901Z,1.07
2023-03-13T09:11:45.723Z,0.63
2023-03-13T09:15:55.420Z,0.70
2023-03-13T09:20:01.064Z,0.65
2023-03-13T09:24:04.423Z,0.70
2023-03-13T09:28:07.238Z,0.40
2023-03-13T09:32:11.466Z,0.43
2023-03-13T09:36:18.701Z,0.40
2023-03-13T09:40:25.420Z,0.60
2023-03-13T09:44:32.099Z,0.43
2023-03-13T09:48:38.607Z,0.55
2023-03-13T09:52:43.764Z,0.40
2023-03-13T09:56:51.700Z,0.60
2023-03-13T10:00:57.946Z,0.60
2023-03-13T10:05:08.905Z,0.60
2023-03-13T10:09:21.438Z,0.90
2023-03-13T10:13:31.054Z,0.50
2023-03-13T10:17:36.017Z,0.60
2023-03-13T10:21:40.789Z,0.43
2023-03-13T10:25:45.193Z,0.57
2023-03-13T10:29:48.130Z,0.60
2023-03-13T10:33:51.012Z,0.80
2023-03-13T10:38:05.620Z,0.50
2023-03-13T10:42:22.730Z,0.25
2023-03-13T10:46:27.260Z,0.50
2023-03-13T10:50:34.987Z,0.68
2023-03-13T10:54:40.929Z,0.30
2023-03-13T10:58:47.625Z,0.55
2023-03-13T11:02:50.901Z,0.32
2023-03-13T11:06:59.391Z,0.40
2023-03-13T11:11:03.942Z,0.22
2023-03-13T11:15:16.370Z,0.40
2023-03-13T11:19:34.138Z,0.63
2023-03-13T11:23:41.842Z,0.47
2023-03-13T11:27:49.874Z,0.55
2023-03-13T11:31:59.890Z,0.57
2023-03-13T11:36:05.788Z,0.88
2023-03-13T11:40:20.490Z,0.68
2023-03-13T11:44:46.442Z,0.90
2023-03-13T11:49:06.657Z,0.43
2023-03-13T11:53:29.340Z,0.60
2023-03-13T11:57:37.818Z,0.73
2023-03-13T12:01:45.461Z,0.55
2023-03-13T12:05:54.846Z,0.60
2023-03-13T12:10:01.437Z,0.80
2023-03-13T12:14:09.902Z,0.70
2023-03-13T12:18:20.369Z,1.20
2023-03-13T12:22:32.024Z,0.90
2023-03-13T12:26:41.285Z,0.88
2023-03-13T12:30:46.187Z,1.33
2023-03-13T12:35:01.247Z,0.90
2023-03-13T12:44:14.401Z,1.05
2023-03-13T12:48:41.376Z,1.10
2023-03-13T12:53:03.340Z,1.17
2023-03-13T12:57:17.588Z,0.90
2023-03-13T13:01:32.667Z,1.00
2023-03-13T13:05:35.524Z,1.10
2023-03-13T13:09:59.728Z,1.40
2023-03-13T13:14:27.110Z,1.00
2023-03-13T13:18:31.287Z,0.63
2023-03-13T13:22:52.682Z,0.90
2023-03-13T13:26:55.881Z,0.80
2023-03-13T13:31:00.448Z,0.75
2023-03-13T13:35:06.779Z,0.90
2023-03-13T13:39:34.007Z,0.90
2023-03-13T13:43:38.933Z,0.88
2023-03-13T13:47:45.057Z,0.98
2023-03-13T13:52:21.330Z,1.33
2023-03-13T14:00:43.761Z,0.68
2023-03-13T14:04:52.307Z,0.60
2023-03-13T14:08:58.570Z,0.70
2023-03-13T14:13:02.449Z,0.80
2023-03-13T14:17:05.350Z,0.85
2023-03-13T14:21:14.054Z,0.80
2023-03-13T14:25:18.422Z,0.85
2023-03-13T14:29:25.940Z,0.73
2023-03-13T14:33:28.828Z,0.80
2023-03-13T14:37:38.003Z,0.65
2023-03-13T14:41:45.778Z,0.60
2023-03-13T14:45:49.986Z,2.20
2023-03-13T14:49:58.763Z,0.60
2023-03-13T14:54:04.043Z,0.80
2023-03-13T14:58:25.360Z,0.70
2023-03-13T15:02:30.855Z,0.50
2023-03-13T15:06:33.889Z,1.60
2023-03-13T15:10:38.542Z,0.60
2023-03-13T15:14:46.357Z,0.80
2023-03-13T15:18:50.491Z,0.77
2023-03-13T15:22:53.370Z,0.80
2023-03-13T15:26:57.506Z,0.70
2023-03-13T15:31:01.042Z,1.02
2023-03-13T15:35:13.281Z,1.00
2023-03-13T15:39:19.355Z,0.80
2023-03-13T15:43:24.056Z,0.65
2023-03-13T15:47:27.465Z,0.70
2023-03-13T15:51:30.741Z,0.80
2023-03-13T15:55:33.517Z,0.70
2023-03-13T15:59:37.711Z,0.60
2023-03-13T16:03:41.456Z,0.55
2023-03-13T16:07:44.372Z,0.60
2023-03-13T16:12:10.403Z,1.35
2023-03-13T16:16:22.844Z,0.47
2023-03-13T16:20:26.471Z,1.17
2023-03-13T16:24:29.304Z,1.33
2023-03-13T16:28:32.094Z,0.80
2023-03-13T16:32:36.319Z,0.80
2023-03-13T16:36:39.239Z,0.52
2023-03-13T16:40:42.096Z,1.00
2023-03-13T16:44:44.872Z,1.05
2023-03-13T16:48:50.347Z,0.82
2023-03-13T16:52:53.946Z,1.40
2023-03-13T16:57:25.066Z,1.23
2023-03-13T17:01:30.002Z,1.20
2023-03-13T17:05:34.176Z,2.00
2023-03-13T17:09:36.945Z,1.65
2023-03-13T17:13:39.829Z,1.52
2023-03-13T17:17:45.028Z,1.83
2023-03-13T17:21:50.307Z,1.10
2023-03-13T17:26:31.382Z,0.70
2023-03-13T17:30:34.834Z,0.85
2023-03-13T17:34:37.740Z,1.13
2023-03-13T17:38:41.927Z,1.35
2023-03-13T17:42:44.892Z,1.80
2023-03-13T17:46:48.565Z,1.92
2023-03-13T17:50:51.350Z,2.53
2023-03-13T17:54:55.582Z,1.63
2023-03-13T17:59:00.103Z,1.88
2023-03-13T18:03:02.896Z,2.03
2023-03-13T18:07:14.706Z,2.90
2023-03-13T18:11:19.133Z,2.58
2023-03-13T18:15:23.718Z,2.78
2023-03-13T18:19:27.745Z,3.70
2023-03-13T18:23:30.759Z,4.75
2023-03-13T18:27:34.974Z,4.20
2023-03-13T18:31:41.678Z,3.70
2023-03-13T18:35:44.528Z,4.22
2023-03-13T18:39:49.823Z,3.38
2023-03-13T18:43:54.008Z,2.92
2023-03-13T18:47:56.846Z,2.85
2023-03-13T18:51:59.556Z,2.60
2023-03-13T18:56:10.364Z,2.00
2023-03-13T19:00:24.335Z,1.70
2023-03-13T19:04:27.123Z,1.52
2023-03-13T19:08:29.850Z,1.30
2023-03-13T19:12:32.655Z,1.30
2023-03-13T19:16:39.677Z,1.27
2023-03-13T19:20:42.477Z,0.98
2023-03-13T19:24:45.382Z,1.90
2023-03-13T19:28:48.194Z,1.42
2023-03-13T19:32:52.733Z,1.25
2023-03-13T19:36:55.631Z,1.45
2023-03-13T19:40:58.484Z,1.48
2023-03-13T19:45:05.896Z,1.67
2023-03-13T19:49:12.608Z,1.73
2023-03-13T19:53:15.342Z,1.17
2023-03-13T19:57:18.141Z,1.67
2023-03-13T20:01:21.057Z,1.40
2023-03-13T20:05:27.138Z,1.38
2023-03-13T20:09:30.276Z,3.10
2023-03-13T20:13:33.588Z,2.30
2023-03-13T20:17:36.496Z,3.08
2023-03-13T20:21:42.713Z,2.28
2023-03-13T20:25:45.564Z,2.00
2023-03-13T20:29:48.426Z,1.60
2023-03-13T20:33:51.309Z,1.83
2023-03-13T20:37:57.807Z,1.85
2023-03-13T20:46:07.445Z,2.63
2023-03-13T20:50:11.412Z,2.67
2023-03-13T20:54:15.555Z,3.20
2023-03-13T20:58:20.268Z,3.05
2023-03-13T21:02:23.129Z,4.18
2023-03-13T21:06:27.209Z,5.28
2023-03-13T21:10:31.360Z,4.20
2023-03-13T21:14:36.359Z,4.20
2023-03-13T21:18:39.307Z,2.80
2023-03-13T21:22:43.590Z,2.40
2023-03-13T21:26:47.692Z,2.35
2023-03-13T21:30:50.574Z,2.13
2023-03-13T21:34:53.390Z,2.00
2023-03-13T21:38:56.318Z,2.25
2023-03-13T21:43:00.510Z,2.17
2023-03-13T21:47:03.269Z,2.58
2023-03-13T21:51:06.703Z,2.17
2023-03-13T21:55:13.123Z,2.67
2023-03-13T21:59:18.015Z,1.80
2023-03-13T22:03:20.843Z,1.85
2023-03-13T22:07:23.799Z,1.67
2023-03-13T22:11:26.811Z,1.85
2023-03-13T22:15:31.180Z,1.75
2023-03-13T22:19:34.283Z,1.35
2023-03-13T22:23:37.148Z,1.70
2023-03-13T22:27:40.016Z,1.60
2023-03-13T22:31:44.210Z,1.70
2023-03-13T22:35:52.075Z,1.35
2023-03-13T22:39:55.115Z,0.90
2023-03-13T22:43:57.890Z,1.08
2023-03-13T22:48:06.089Z,0.73
2023-03-13T22:52:08.931Z,0.38
2023-03-13T22:56:12.922Z,0.40
2023-03-13T23:00:17.049Z,0.45
2023-03-13T23:04:21.234Z,0.17
2023-03-13T23:08:24.053Z,0.20
2023-03-13T23:12:30.561Z,0.22
2023-03-13T23:20:38.580Z,0.20
2023-03-13T23:24:41.456Z,0.32
2023-03-13T23:28:44.512Z,0.22
2023-03-13T23:32:48.342Z,0.28
2023-03-13T23:36:52.569Z,0.20
2023-03-13T23:40:55.452Z,0.10
2023-03-13T23:44:58.302Z,0.30
2023-03-13T23:49:01.147Z,0.40
2023-03-13T23:53:05.294Z,0.25
2023-03-13T23:57:08.132Z,0.10
